Etusivu
METAR-TAF:

METAR-TAF

Lentoasemat :

Black River Falls, Wisconsin, Yhdysvallat

Leveyspiiri: 44-15-03N, Pituuspiiri: 090-51-19W, korkeus merenpinnasta: 255 m

Tämänhetkinen sää

Tämä raportti tehtiin 23 minuuttia sitten, kello 16.15 UTC
Tuuli 8 kn pohjoisen/luoteesta puuskistuen 16 kn:hen
Lämpötila 9°C
Kosteus 61%
Ilmanpaine 1018 hPa
Näkyvyys: 16.1 km
Hajanaisia pilviä 2600 ft:n korkeudessa
Pilvistä 3200 ft:n korkeudessa

METAR: KBCK 161615Z AUTO 33008G16KT 10SM SCT026 OVC032 09/02 A3005 RMK AO2 T00880024

Aika: 11:38 (16:38 UTC)


TAF: puuttuu

Säähavainnot ja -ennusteet yli 4000 lentoasemalta (METAR- ja TAF-raportit).

Käytössä olevat sääasemat on merkitty karttaan keltaisilla ja punaisilla pisteillä.

Aseta hiiri pisteen päälle nähdäksesi sääaseman nimen.

Klikkaa sitten nähdäksesi säähavainnot ja -ennusteet.

Kartan vaihtaminen: klikkaa mustalla rastilla varustettuja vihreitä pisteitä, niin voit zoomata sisään; viivalla varustettua vihreää pistettä, niin voit zoomata ulos tai vihreitä nuolia, niin pääset viereisille kartoille.


METAR-TAF: